createdAt,value
2023-09-08T00:02:28.002Z,12.68
2023-09-08T00:05:26.024Z,9.73
2023-09-08T00:08:25.521Z,8.88
2023-09-08T00:11:23.478Z,12.15
2023-09-08T00:14:21.421Z,12.43
2023-09-08T00:17:19.420Z,11.68
2023-09-08T00:20:17.260Z,9.48
2023-09-08T00:23:15.160Z,9.13
2023-09-08T00:26:13.023Z,9.70
2023-09-08T00:29:11.024Z,9.68
2023-09-08T00:32:08.901Z,8.65
2023-09-08T00:35:09.738Z,11.10
2023-09-08T00:38:07.615Z,12.52
2023-09-08T00:41:07.462Z,10.38
2023-09-08T00:44:06.164Z,10.85
2023-09-08T00:47:04.257Z,11.40
2023-09-08T00:50:04.036Z,8.35
2023-09-08T00:53:02.091Z,10.18
2023-09-08T00:56:01.254Z,10.48
2023-09-08T00:58:59.587Z,10.63
2023-09-08T01:01:57.381Z,12.50
2023-09-08T01:04:55.448Z,10.98
2023-09-08T01:07:54.766Z,13.07
2023-09-08T01:10:53.088Z,13.82
2023-09-08T01:13:50.910Z,13.65
2023-09-08T01:16:48.931Z,18.48
2023-09-08T01:19:49.175Z,13.88
2023-09-08T01:23:22.350Z,16.75
2023-09-08T01:26:23.227Z,27.65
2023-09-08T01:29:24.950Z,23.13
2023-09-08T01:32:23.092Z,19.67
2023-09-08T01:35:21.474Z,16.88
2023-09-08T01:38:19.298Z,21.55
2023-09-08T01:41:17.272Z,23.88
2023-09-08T01:44:15.097Z,25.38
2023-09-08T01:47:13.073Z,24.20
2023-09-08T01:50:11.342Z,25.27
2023-09-08T01:53:09.295Z,24.75
2023-09-08T01:56:07.172Z,25.58
2023-09-08T01:59:06.511Z,21.50
2023-09-08T02:02:04.963Z,18.73
2023-09-08T02:05:03.113Z,18.60
2023-09-08T02:08:01.017Z,16.17
2023-09-08T02:10:58.930Z,17.05
2023-09-08T02:13:58.665Z,19.02
2023-09-08T02:16:57.504Z,26.73
2023-09-08T02:19:55.365Z,21.58
2023-09-08T02:22:57.197Z,19.88
2023-09-08T02:25:55.080Z,22.05
2023-09-08T02:28:53.039Z,22.77
2023-09-08T02:31:51.218Z,15.82
2023-09-08T02:34:50.375Z,21.00
2023-09-08T02:37:48.243Z,24.08
2023-09-08T02:40:46.211Z,25.30
2023-09-08T02:43:44.095Z,23.95
2023-09-08T02:46:43.037Z,27.00
2023-09-08T02:49:43.313Z,28.02
2023-09-08T02:52:41.515Z,21.33
2023-09-08T02:55:39.412Z,18.15
2023-09-08T02:58:38.171Z,17.70
2023-09-08T03:01:36.232Z,16.48
2023-09-08T03:04:34.225Z,17.02
2023-09-08T03:07:32.140Z,14.60
2023-09-08T03:10:30.321Z,14.70
2023-09-08T03:13:28.129Z,16.45
2023-09-08T03:16:26.104Z,15.35
2023-09-08T03:19:23.903Z,20.02
2023-09-08T03:22:21.764Z,24.20
2023-09-08T03:25:19.670Z,27.13
2023-09-08T03:28:17.682Z,20.20
2023-09-08T03:31:15.711Z,20.95
2023-09-08T03:34:14.798Z,19.02
2023-09-08T03:37:12.772Z,27.77
2023-09-08T03:40:11.384Z,27.75
2023-09-08T03:43:09.232Z,17.63
2023-09-08T03:46:07.218Z,19.92
2023-09-08T03:49:05.523Z,17.85
2023-09-08T03:52:03.585Z,16.75
2023-09-08T03:55:01.469Z,17.25
2023-09-08T03:57:59.479Z,20.42
2023-09-08T04:00:57.372Z,24.88
2023-09-08T04:03:55.782Z,25.55
2023-09-08T04:06:53.664Z,18.00
2023-09-08T04:09:51.583Z,18.98
2023-09-08T04:12:49.510Z,19.27
2023-09-08T04:15:47.518Z,23.83
2023-09-08T04:18:46.415Z,17.48
2023-09-08T04:21:44.382Z,25.20
2023-09-08T04:24:42.221Z,19.38
2023-09-08T04:27:40.332Z,20.75
2023-09-08T04:30:38.120Z,26.13
2023-09-08T04:33:36.503Z,19.33
2023-09-08T04:36:34.616Z,22.20
2023-09-08T04:39:32.625Z,21.30
2023-09-08T04:42:31.165Z,17.45
2023-09-08T04:45:29.231Z,18.95
2023-09-08T04:48:29.244Z,27.63
2023-09-08T04:51:28.673Z,25.67
2023-09-08T04:54:28.832Z,23.20
2023-09-08T04:57:26.799Z,20.35
2023-09-08T05:00:24.934Z,18.45
2023-09-08T05:03:23.035Z,16.90
2023-09-08T05:06:20.814Z,17.88
2023-09-08T05:09:18.834Z,20.38
2023-09-08T05:12:16.775Z,25.17
2023-09-08T05:15:17.236Z,24.02
2023-09-08T05:18:15.191Z,23.30
2023-09-08T05:21:13.204Z,19.20
2023-09-08T05:24:11.323Z,17.85
2023-09-08T05:27:09.319Z,21.08
2023-09-08T05:30:08.303Z,18.35
2023-09-08T05:33:06.407Z,19.98
2023-09-08T05:36:04.350Z,17.70
2023-09-08T05:39:02.340Z,18.67
2023-09-08T05:42:00.261Z,34.83
2023-09-08T05:44:58.205Z,25.17
2023-09-08T05:47:56.208Z,25.38
2023-09-08T05:50:54.331Z,21.73
2023-09-08T05:53:52.248Z,27.75
2023-09-08T05:56:50.185Z,26.23
2023-09-08T05:59:48.009Z,33.50
2023-09-08T06:02:46.041Z,23.95
2023-09-08T06:05:44.109Z,42.53
2023-09-08T06:08:42.060Z,37.58
2023-09-08T06:11:39.990Z,39.50
2023-09-08T06:14:38.135Z,41.58
2023-09-08T06:17:36.041Z,41.53
2023-09-08T06:20:34.155Z,47.00
2023-09-08T06:23:32.036Z,35.90
2023-09-08T06:26:30.043Z,46.78
2023-09-08T06:29:27.836Z,50.83
2023-09-08T06:32:25.827Z,45.95
2023-09-08T06:35:23.749Z,52.60
2023-09-08T06:38:21.848Z,46.75
2023-09-08T06:41:19.666Z,45.47
2023-09-08T06:44:17.739Z,44.90
2023-09-08T06:47:15.564Z,51.50
2023-09-08T06:50:13.886Z,50.20
2023-09-08T06:53:12.324Z,57.22
2023-09-08T06:56:10.374Z,44.13
2023-09-08T06:59:08.217Z,46.65
2023-09-08T07:02:06.333Z,44.53
2023-09-08T07:05:09.446Z,46.30
2023-09-08T07:08:08.964Z,47.70
2023-09-08T07:11:06.874Z,44.42
2023-09-08T07:14:04.880Z,52.75
2023-09-08T07:17:02.874Z,44.90
2023-09-08T07:20:00.935Z,43.70
2023-09-08T07:22:58.764Z,37.92
2023-09-08T07:25:56.984Z,30.60
2023-09-08T07:28:54.795Z,37.42
2023-09-08T07:31:53.010Z,41.08
2023-09-08T07:34:57.017Z,39.45
2023-09-08T07:37:55.409Z,35.03
2023-09-08T07:40:53.228Z,33.08
2023-09-08T07:43:52.675Z,39.22
2023-09-08T07:46:52.859Z,31.88
2023-09-08T07:49:50.763Z,35.88
2023-09-08T07:52:50.057Z,38.90
2023-09-08T07:55:48.014Z,29.40
2023-09-08T07:58:45.902Z,26.13
2023-09-08T08:01:44.031Z,32.60
2023-09-08T08:04:41.906Z,37.53
2023-09-08T08:07:41.918Z,41.63
2023-09-08T08:10:39.773Z,31.98
2023-09-08T08:13:37.696Z,33.92
2023-09-08T08:16:36.372Z,43.70
2023-09-08T08:19:34.395Z,40.88
2023-09-08T08:22:32.374Z,33.65
2023-09-08T08:25:30.692Z,33.15
2023-09-08T08:28:28.586Z,44.58
2023-09-08T08:31:26.491Z,46.05
2023-09-08T08:34:24.291Z,36.00
2023-09-08T08:37:22.395Z,40.28
2023-09-08T08:40:20.301Z,33.90
2023-09-08T08:43:18.391Z,43.30
2023-09-08T08:46:16.618Z,54.75
2023-09-08T08:49:16.805Z,56.63
2023-09-08T08:52:16.493Z,50.55
2023-09-08T08:55:17.285Z,48.03
2023-09-08T08:58:16.309Z,50.90
2023-09-08T09:01:14.549Z,69.45
2023-09-08T09:04:13.776Z,51.80
2023-09-08T09:07:12.841Z,48.53
2023-09-08T09:10:11.392Z,46.58
2023-09-08T09:13:09.308Z,47.65
2023-09-08T09:16:11.898Z,48.55
2023-09-08T09:19:10.113Z,48.30
2023-09-08T09:22:07.875Z,48.35
2023-09-08T09:25:09.258Z,39.88
2023-09-08T09:28:07.641Z,44.50
2023-09-08T09:31:05.786Z,47.25
2023-09-08T09:34:06.131Z,37.42
2023-09-08T09:37:07.052Z,43.70
2023-09-08T09:40:09.087Z,51.20
2023-09-08T09:43:08.859Z,41.83
2023-09-08T09:46:10.758Z,28.42
2023-09-08T09:49:11.812Z,36.05
2023-09-08T09:52:09.660Z,42.47
2023-09-08T09:55:08.932Z,31.73
2023-09-08T09:58:07.483Z,34.47
2023-09-08T10:01:07.600Z,33.88
2023-09-08T10:04:06.643Z,31.48
2023-09-08T10:07:04.866Z,32.75
2023-09-08T10:10:02.633Z,26.92
2023-09-08T10:13:06.344Z,35.25
2023-09-08T10:16:06.129Z,35.72
2023-09-08T10:19:07.947Z,32.13
2023-09-08T10:22:07.925Z,34.65
2023-09-08T10:25:08.185Z,35.88
2023-09-08T10:28:06.886Z,30.80
2023-09-08T10:31:06.005Z,38.05
2023-09-08T10:34:04.675Z,22.70
2023-09-08T10:37:02.766Z,24.75
2023-09-08T10:40:24.189Z,26.20
2023-09-08T10:43:22.880Z,23.80
2023-09-08T10:46:25.327Z,22.73
2023-09-08T10:52:23.978Z,23.70
2023-09-08T10:55:39.365Z,20.55
2023-09-08T10:58:42.562Z,25.27
2023-09-08T11:01:40.618Z,19.52
2023-09-08T11:04:39.045Z,17.77
2023-09-08T11:07:39.487Z,20.25
2023-09-08T11:10:39.257Z,18.58
2023-09-08T11:13:37.294Z,14.77
2023-09-08T11:16:38.094Z,18.15
2023-09-08T11:19:51.739Z,24.50
2023-09-08T11:22:51.297Z,34.40
2023-09-08T11:25:50.759Z,26.85
2023-09-08T11:28:50.852Z,22.42
2023-09-08T11:31:54.449Z,19.75
2023-09-08T11:34:52.383Z,23.95
2023-09-08T11:37:51.305Z,22.50
2023-09-08T11:40:49.219Z,20.30
2023-09-08T11:43:47.369Z,22.42
2023-09-08T11:46:45.342Z,22.08
2023-09-08T11:49:46.150Z,26.13
2023-09-08T11:52:48.818Z,25.83
2023-09-08T11:55:47.394Z,22.63
2023-09-08T11:58:46.228Z,22.98
2023-09-08T12:01:44.314Z,25.85
2023-09-08T12:04:43.698Z,23.73
2023-09-08T12:07:41.712Z,22.42
2023-09-08T12:10:40.926Z,22.67
2023-09-08T12:13:38.985Z,25.27
2023-09-08T12:16:37.107Z,21.30
2023-09-08T12:19:35.268Z,22.83
2023-09-08T12:22:34.993Z,19.33
2023-09-08T12:25:33.548Z,22.90
2023-09-08T12:28:33.487Z,27.90
2023-09-08T12:31:31.820Z,26.70
2023-09-08T12:34:32.335Z,25.77
2023-09-08T12:37:30.721Z,33.85
2023-09-08T12:40:30.124Z,28.05
2023-09-08T12:43:28.581Z,24.40
2023-09-08T12:46:27.562Z,29.08
2023-09-08T12:49:25.518Z,20.65
2023-09-08T12:52:23.479Z,22.20
2023-09-08T12:55:22.187Z,21.55
2023-09-08T12:58:23.176Z,21.20
2023-09-08T13:01:24.219Z,20.00
2023-09-08T13:04:23.668Z,20.90
2023-09-08T13:07:21.909Z,21.15
2023-09-08T13:10:19.835Z,25.05
2023-09-08T13:13:17.808Z,27.58
2023-09-08T13:16:15.760Z,26.75
2023-09-08T13:19:14.815Z,22.63
2023-09-08T13:22:13.065Z,26.27
2023-09-08T13:25:11.101Z,16.92
2023-09-08T13:28:09.268Z,19.45
2023-09-08T13:31:07.339Z,21.02
2023-09-08T13:34:05.300Z,21.80
2023-09-08T13:37:04.366Z,17.98
2023-09-08T13:40:05.898Z,18.10
2023-09-08T13:43:04.253Z,18.55
2023-09-08T13:46:02.221Z,16.95
2023-09-08T13:49:01.515Z,20.45
2023-09-08T13:52:01.708Z,15.45
2023-09-08T13:55:24.507Z,18.50
2023-09-08T13:58:20.011Z,17.48
2023-09-08T14:01:20.041Z,17.73
2023-09-08T14:04:19.144Z,21.10
2023-09-08T14:10:28.443Z,19.38
2023-09-08T14:13:28.472Z,20.85
2023-09-08T14:16:29.102Z,19.80
2023-09-08T14:19:27.094Z,20.30
2023-09-08T14:22:25.136Z,15.23
2023-09-08T14:25:24.553Z,17.52
2023-09-08T14:28:22.657Z,14.98
2023-09-08T14:31:20.656Z,18.13
2023-09-08T14:34:18.632Z,20.92
2023-09-08T14:37:17.070Z,18.05
2023-09-08T14:40:14.920Z,19.83
2023-09-08T14:43:12.855Z,15.82
2023-09-08T14:46:10.730Z,20.77
2023-09-08T14:49:08.676Z,13.75
2023-09-08T14:52:07.124Z,16.33
2023-09-08T14:55:05.215Z,18.80
2023-09-08T14:58:03.264Z,20.63
2023-09-08T15:01:08.985Z,16.38
2023-09-08T15:04:07.375Z,24.58
2023-09-08T15:07:06.505Z,15.10
2023-09-08T15:10:05.984Z,17.15
2023-09-08T15:13:05.076Z,18.45
2023-09-08T15:16:03.385Z,19.17
2023-09-08T15:19:04.542Z,15.23
2023-09-08T15:22:02.332Z,14.60
2023-09-08T15:25:00.311Z,14.93
2023-09-08T15:28:01.025Z,13.98
2023-09-08T15:30:58.961Z,13.57
2023-09-08T15:33:56.997Z,11.68
2023-09-08T15:36:55.021Z,13.65
2023-09-08T15:39:53.283Z,14.40
2023-09-08T15:42:53.846Z,17.48
2023-09-08T15:45:51.643Z,11.10
2023-09-08T15:48:50.067Z,13.45
2023-09-08T15:51:51.594Z,11.65
2023-09-08T15:54:52.331Z,12.43
2023-09-08T15:57:50.238Z,15.00
2023-09-08T16:00:48.387Z,11.73
2023-09-08T16:03:47.164Z,12.00
2023-09-08T16:06:45.217Z,12.55
2023-09-08T16:09:43.628Z,12.27
2023-09-08T16:12:41.592Z,12.63
2023-09-08T16:15:40.369Z,10.05
2023-09-08T16:18:38.464Z,15.73
2023-09-08T16:21:37.635Z,14.32
2023-09-08T16:24:35.685Z,15.05
2023-09-08T16:27:35.604Z,13.98
2023-09-08T16:30:33.654Z,12.38
2023-09-08T16:33:31.529Z,11.35
2023-09-08T16:36:30.642Z,11.32
2023-09-08T16:39:28.559Z,12.57
2023-09-08T16:42:26.711Z,11.45
2023-09-08T16:45:24.597Z,11.48
2023-09-08T16:48:22.771Z,14.68
2023-09-08T16:51:20.603Z,11.55
2023-09-08T16:54:18.511Z,14.95
2023-09-08T16:57:16.885Z,13.60
2023-09-08T17:00:15.135Z,10.52
2023-09-08T17:03:13.231Z,12.98
2023-09-08T17:06:11.408Z,11.68
2023-09-08T17:09:10.313Z,12.18
2023-09-08T17:12:10.371Z,10.85
2023-09-08T17:15:09.455Z,14.73
2023-09-08T17:18:07.918Z,13.35
2023-09-08T17:21:08.987Z,9.65
2023-09-08T17:24:07.495Z,12.93
2023-09-08T17:27:05.762Z,12.57
2023-09-08T17:30:03.725Z,11.68
2023-09-08T17:33:01.649Z,13.48
2023-09-08T17:35:59.641Z,13.65
2023-09-08T17:38:57.572Z,14.43
2023-09-08T17:41:55.546Z,14.00
2023-09-08T17:44:53.277Z,12.35
2023-09-08T17:47:51.250Z,11.70
2023-09-08T17:50:49.304Z,12.35
2023-09-08T17:53:47.596Z,10.80
2023-09-08T17:56:45.368Z,14.18
2023-09-08T17:59:43.651Z,13.23
2023-09-08T18:02:41.617Z,14.68
2023-09-08T18:05:39.873Z,11.13
2023-09-08T18:08:37.815Z,10.77
2023-09-08T18:11:35.813Z,11.85
2023-09-08T18:14:33.703Z,13.48
2023-09-08T18:17:33.095Z,12.50
2023-09-08T18:20:30.971Z,9.65
2023-09-08T18:23:28.951Z,13.15
2023-09-08T18:26:26.844Z,11.23
2023-09-08T18:29:24.853Z,11.32
2023-09-08T18:32:22.664Z,9.75
2023-09-08T18:35:22.197Z,11.25
2023-09-08T18:38:20.055Z,14.30
2023-09-08T18:41:19.094Z,11.20
2023-09-08T18:44:16.912Z,11.98
2023-09-08T18:47:14.931Z,9.95
2023-09-08T18:50:13.899Z,11.95
2023-09-08T18:53:12.225Z,10.63
2023-09-08T18:56:10.204Z,12.27
2023-09-08T18:59:08.128Z,10.88
2023-09-08T19:02:06.224Z,17.92
2023-09-08T19:05:04.634Z,13.18
2023-09-08T19:08:02.674Z,14.93
2023-09-08T19:11:01.185Z,9.98
2023-09-08T19:13:58.937Z,11.10
2023-09-08T19:16:59.265Z,14.70
2023-09-08T19:19:57.129Z,13.57
2023-09-08T19:22:55.473Z,11.32
2023-09-08T19:25:53.341Z,13.77
2023-09-08T19:28:51.675Z,8.75
2023-09-08T19:31:49.437Z,11.70
2023-09-08T19:34:47.376Z,13.32
2023-09-08T19:37:45.193Z,10.88
2023-09-08T19:40:43.151Z,11.90
2023-09-08T19:43:41.423Z,11.13
2023-09-08T19:46:39.389Z,13.95
2023-09-08T19:49:40.228Z,13.05
2023-09-08T19:52:41.111Z,13.55
2023-09-08T19:55:41.437Z,14.90
2023-09-08T19:58:39.449Z,12.15
2023-09-08T20:01:37.466Z,8.52
2023-09-08T20:04:35.511Z,12.10
2023-09-08T20:07:33.373Z,8.98
2023-09-08T20:10:31.339Z,13.07
2023-09-08T20:13:29.273Z,15.43
2023-09-08T20:16:27.305Z,10.35
2023-09-08T20:19:25.141Z,12.32
2023-09-08T20:22:23.266Z,10.60
2023-09-08T20:25:22.091Z,11.55
2023-09-08T20:28:21.471Z,11.13
2023-09-08T20:31:19.740Z,12.25
2023-09-08T20:34:18.201Z,11.95
2023-09-08T20:37:16.313Z,10.27
2023-09-08T20:40:14.456Z,11.15
2023-09-08T20:43:12.222Z,12.18
2023-09-08T20:46:10.386Z,13.57
2023-09-08T20:49:09.988Z,9.85
2023-09-08T20:52:13.581Z,12.23
2023-09-08T20:55:12.161Z,11.23
2023-09-08T20:58:10.076Z,8.65
2023-09-08T21:01:08.658Z,12.40
2023-09-08T21:04:07.336Z,10.07
2023-09-08T21:07:05.351Z,11.98
2023-09-08T21:10:03.882Z,8.93
2023-09-08T21:13:01.647Z,14.07
2023-09-08T21:16:00.173Z,10.68
2023-09-08T21:18:58.023Z,9.32
2023-09-08T21:21:56.118Z,11.05
2023-09-08T21:24:56.942Z,13.18
2023-09-08T21:27:54.867Z,11.02
2023-09-08T21:30:52.720Z,8.93
2023-09-08T21:33:51.555Z,10.23
2023-09-08T21:36:49.736Z,8.85
2023-09-08T21:39:47.721Z,11.07
2023-09-08T21:42:45.561Z,11.27
2023-09-08T21:45:43.489Z,10.15
2023-09-08T21:48:41.452Z,11.43
2023-09-08T21:51:40.115Z,11.68
2023-09-08T21:54:38.147Z,10.50
2023-09-08T21:57:36.151Z,11.13
2023-09-08T22:00:34.670Z,11.00
2023-09-08T22:03:32.839Z,7.80
2023-09-08T22:06:30.812Z,8.13
2023-09-08T22:09:28.821Z,8.65
2023-09-08T22:12:26.602Z,10.07
2023-09-08T22:15:24.631Z,10.32
2023-09-08T22:18:22.443Z,10.75
2023-09-08T22:21:20.329Z,8.90
2023-09-08T22:24:18.291Z,10.07
2023-09-08T22:27:16.298Z,11.02
2023-09-08T22:30:14.544Z,8.55
2023-09-08T22:33:12.537Z,10.95
2023-09-08T22:36:10.707Z,10.80
2023-09-08T22:39:10.296Z,11.35
2023-09-08T22:42:08.277Z,10.75
2023-09-08T22:45:06.925Z,9.38
2023-09-08T22:48:05.285Z,9.00
2023-09-08T22:51:04.919Z,8.65
2023-09-08T22:54:04.223Z,6.88
2023-09-08T22:57:02.228Z,9.77
2023-09-08T23:00:00.674Z,10.18
2023-09-08T23:02:58.817Z,9.65
2023-09-08T23:05:57.333Z,9.95
2023-09-08T23:08:55.371Z,8.00
2023-09-08T23:11:54.046Z,11.70
2023-09-08T23:14:54.841Z,11.10
2023-09-08T23:17:53.110Z,8.80
2023-09-08T23:20:51.247Z,12.05
2023-09-08T23:23:49.068Z,9.63
2023-09-08T23:26:47.239Z,10.90
2023-09-08T23:29:45.067Z,9.18
2023-09-08T23:32:45.387Z,9.50
2023-09-08T23:35:43.920Z,13.10
2023-09-08T23:38:41.945Z,8.75
2023-09-08T23:41:39.776Z,9.43
2023-09-08T23:44:37.790Z,9.65
2023-09-08T23:47:35.924Z,8.55
2023-09-08T23:50:55.180Z,10.30
2023-09-08T23:53:53.988Z,10.45
2023-09-08T23:56:52.001Z,12.23
2023-09-08T23:59:50.416Z,12.30
